sensor_id;sensor_type;location;lat;lon;timestamp;temperature;humidity
70246;SHT30;57637;49.272;8.590;2024-01-30T00:00:33;2.07;90.88
70246;SHT30;57637;49.272;8.590;2024-01-30T00:02:58;2.07;90.96
70246;SHT30;57637;49.272;8.590;2024-01-30T00:05:23;2.04;90.96
70246;SHT30;57637;49.272;8.590;2024-01-30T00:07:49;2.04;90.92
70246;SHT30;57637;49.272;8.590;2024-01-30T00:10:15;2.04;90.95
70246;SHT30;57637;49.272;8.590;2024-01-30T00:12:40;2.09;91.16
70246;SHT30;57637;49.272;8.590;2024-01-30T00:15:06;2.24;91.47
70246;SHT30;57637;49.272;8.590;2024-01-30T00:17:34;2.17;91.04
70246;SHT30;57637;49.272;8.590;2024-01-30T00:20:00;2.18;90.93
70246;SHT30;57637;49.272;8.590;2024-01-30T00:22:25;2.20;90.87
70246;SHT30;57637;49.272;8.590;2024-01-30T00:24:50;2.25;90.94
70246;SHT30;57637;49.272;8.590;2024-01-30T00:27:16;2.31;90.90
70246;SHT30;57637;49.272;8.590;2024-01-30T00:29:41;2.32;90.93
70246;SHT30;57637;49.272;8.590;2024-01-30T00:32:06;2.31;90.84
70246;SHT30;57637;49.272;8.590;2024-01-30T00:34:31;2.22;90.71
70246;SHT30;57637;49.272;8.590;2024-01-30T00:36:57;2.17;90.68
70246;SHT30;57637;49.272;8.590;2024-01-30T00:39:22;2.15;90.72
70246;SHT30;57637;49.272;8.590;2024-01-30T00:41:48;2.13;90.70
70246;SHT30;57637;49.272;8.590;2024-01-30T00:44:13;2.09;90.66
70246;SHT30;57637;49.272;8.590;2024-01-30T00:46:39;2.04;90.69
70246;SHT30;57637;49.272;8.590;2024-01-30T00:49:04;1.99;90.74
70246;SHT30;57637;49.272;8.590;2024-01-30T00:51:29;1.91;90.79
70246;SHT30;57637;49.272;8.590;2024-01-30T00:53:55;1.86;90.75
70246;SHT30;57637;49.272;8.590;2024-01-30T00:56:20;1.84;90.92
70246;SHT30;57637;49.272;8.590;2024-01-30T00:58:45;1.83;91.02
70246;SHT30;57637;49.272;8.590;2024-01-30T01:01:11;1.80;91.08
70246;SHT30;57637;49.272;8.590;2024-01-30T01:03:36;1.79;91.10
70246;SHT30;57637;49.272;8.590;2024-01-30T01:06:02;1.76;91.23
70246;SHT30;57637;49.272;8.590;2024-01-30T01:08:27;1.70;91.41
70246;SHT30;57637;49.272;8.590;2024-01-30T01:10:52;1.70;91.54
70246;SHT30;57637;49.272;8.590;2024-01-30T01:13:17;1.70;91.67
70246;SHT30;57637;49.272;8.590;2024-01-30T01:15:43;1.69;91.52
70246;SHT30;57637;49.272;8.590;2024-01-30T01:18:08;1.67;91.68
70246;SHT30;57637;49.272;8.590;2024-01-30T01:20:33;1.64;91.69
70246;SHT30;57637;49.272;8.590;2024-01-30T01:22:59;1.60;91.80
70246;SHT30;57637;49.272;8.590;2024-01-30T01:25:24;1.62;91.91
70246;SHT30;57637;49.272;8.590;2024-01-30T01:27:49;1.58;91.94
70246;SHT30;57637;49.272;8.590;2024-01-30T01:30:17;1.69;92.19
70246;SHT30;57637;49.272;8.590;2024-01-30T01:32:50;1.73;92.25
70246;SHT30;57637;49.272;8.590;2024-01-30T01:35:21;1.81;92.20
70246;SHT30;57637;49.272;8.590;2024-01-30T01:37:47;1.83;92.14
70246;SHT30;57637;49.272;8.590;2024-01-30T01:40:19;1.84;92.13
70246;SHT30;57637;49.272;8.590;2024-01-30T01:42:45;1.87;92.04
70246;SHT30;57637;49.272;8.590;2024-01-30T01:45:10;1.89;92.09
70246;SHT30;57637;49.272;8.590;2024-01-30T01:47:35;1.87;91.98
70246;SHT30;57637;49.272;8.590;2024-01-30T01:50:01;1.89;91.96
70246;SHT30;57637;49.272;8.590;2024-01-30T01:52:27;1.93;91.97
70246;SHT30;57637;49.272;8.590;2024-01-30T01:54:53;1.97;91.90
70246;SHT30;57637;49.272;8.590;2024-01-30T01:57:19;1.97;92.03
70246;SHT30;57637;49.272;8.590;2024-01-30T01:59:44;1.99;91.97
70246;SHT30;57637;49.272;8.590;2024-01-30T02:02:10;1.97;91.95
70246;SHT30;57637;49.272;8.590;2024-01-30T02:04:38;2.01;92.13
70246;SHT30;57637;49.272;8.590;2024-01-30T02:07:03;1.99;91.88
70246;SHT30;57637;49.272;8.590;2024-01-30T02:09:28;2.03;91.92
70246;SHT30;57637;49.272;8.590;2024-01-30T02:11:54;2.01;91.78
70246;SHT30;57637;49.272;8.590;2024-01-30T02:14:20;1.97;91.69
70246;SHT30;57637;49.272;8.590;2024-01-30T02:16:45;1.94;91.79
70246;SHT30;57637;49.272;8.590;2024-01-30T02:19:10;1.87;91.78
70246;SHT30;57637;49.272;8.590;2024-01-30T02:21:36;1.87;91.69
70246;SHT30;57637;49.272;8.590;2024-01-30T02:24:01;1.86;91.83
70246;SHT30;57637;49.272;8.590;2024-01-30T02:26:28;1.86;92.03
70246;SHT30;57637;49.272;8.590;2024-01-30T02:28:53;1.90;92.05
70246;SHT30;57637;49.272;8.590;2024-01-30T02:31:19;1.81;92.00
70246;SHT30;57637;49.272;8.590;2024-01-30T02:33:44;1.79;92.03
70246;SHT30;57637;49.272;8.590;2024-01-30T02:36:09;1.76;92.04
70246;SHT30;57637;49.272;8.590;2024-01-30T02:38:35;1.76;92.00
70246;SHT30;57637;49.272;8.590;2024-01-30T02:41:00;1.77;92.08
70246;SHT30;57637;49.272;8.590;2024-01-30T02:43:25;1.74;92.07
70246;SHT30;57637;49.272;8.590;2024-01-30T02:45:50;1.70;92.05
70246;SHT30;57637;49.272;8.590;2024-01-30T02:48:16;1.69;92.06
70246;SHT30;57637;49.272;8.590;2024-01-30T02:50:41;1.64;91.96
70246;SHT30;57637;49.272;8.590;2024-01-30T02:53:10;1.62;91.95
70246;SHT30;57637;49.272;8.590;2024-01-30T02:55:36;1.62;91.90
70246;SHT30;57637;49.272;8.590;2024-01-30T02:58:01;1.62;91.90
70246;SHT30;57637;49.272;8.590;2024-01-30T03:00:26;1.58;92.00
70246;SHT30;57637;49.272;8.590;2024-01-30T03:02:52;1.55;92.12
70246;SHT30;57637;49.272;8.590;2024-01-30T03:05:17;1.50;92.20
70246;SHT30;57637;49.272;8.590;2024-01-30T03:07:42;1.49;92.22
70246;SHT30;57637;49.272;8.590;2024-01-30T03:10:08;1.42;92.16
70246;SHT30;57637;49.272;8.590;2024-01-30T03:12:33;1.36;92.19
70246;SHT30;57637;49.272;8.590;2024-01-30T03:14:58;1.38;92.23
70246;SHT30;57637;49.272;8.590;2024-01-30T03:17:24;1.35;92.25
70246;SHT30;57637;49.272;8.590;2024-01-30T03:19:49;1.35;92.27
70246;SHT30;57637;49.272;8.590;2024-01-30T03:22:15;1.34;92.28
70246;SHT30;57637;49.272;8.590;2024-01-30T03:24:40;1.42;92.59
70246;SHT30;57637;49.272;8.590;2024-01-30T03:27:05;1.43;92.60
70246;SHT30;57637;49.272;8.590;2024-01-30T03:29:31;1.49;92.59
70246;SHT30;57637;49.272;8.590;2024-01-30T03:31:56;1.45;92.54
70246;SHT30;57637;49.272;8.590;2024-01-30T03:34:21;1.39;92.43
70246;SHT30;57637;49.272;8.590;2024-01-30T03:36:47;1.40;92.44
70246;SHT30;57637;49.272;8.590;2024-01-30T03:39:12;1.36;92.46
70246;SHT30;57637;49.272;8.590;2024-01-30T03:41:37;1.35;92.42
70246;SHT30;57637;49.272;8.590;2024-01-30T03:44:02;1.35;92.46
70246;SHT30;57637;49.272;8.590;2024-01-30T03:46:28;1.38;92.61
70246;SHT30;57637;49.272;8.590;2024-01-30T03:48:53;1.40;92.50
70246;SHT30;57637;49.272;8.590;2024-01-30T03:51:19;1.46;92.67
70246;SHT30;57637;49.272;8.590;2024-01-30T03:53:44;1.48;92.55
70246;SHT30;57637;49.272;8.590;2024-01-30T03:56:13;1.46;92.56
70246;SHT30;57637;49.272;8.590;2024-01-30T03:58:39;1.49;92.53
70246;SHT30;57637;49.272;8.590;2024-01-30T04:01:04;1.58;92.72
70246;SHT30;57637;49.272;8.590;2024-01-30T04:03:30;1.58;92.65
70246;SHT30;57637;49.272;8.590;2024-01-30T04:05:55;1.55;92.61
70246;SHT30;57637;49.272;8.590;2024-01-30T04:08:20;1.50;92.64
70246;SHT30;57637;49.272;8.590;2024-01-30T04:10:46;1.50;92.58
70246;SHT30;57637;49.272;8.590;2024-01-30T04:13:12;1.49;92.64
70246;SHT30;57637;49.272;8.590;2024-01-30T04:15:37;1.52;92.64
70246;SHT30;57637;49.272;8.590;2024-01-30T04:18:03;1.53;92.78
70246;SHT30;57637;49.272;8.590;2024-01-30T04:20:29;1.53;92.79
70246;SHT30;57637;49.272;8.590;2024-01-30T04:22:55;1.49;92.74
70246;SHT30;57637;49.272;8.590;2024-01-30T04:25:20;1.49;92.83
70246;SHT30;57637;49.272;8.590;2024-01-30T04:27:46;1.45;92.76
70246;SHT30;57637;49.272;8.590;2024-01-30T04:30:11;1.43;92.74
70246;SHT30;57637;49.272;8.590;2024-01-30T04:32:36;1.40;92.87
70246;SHT30;57637;49.272;8.590;2024-01-30T04:35:02;1.40;92.94
70246;SHT30;57637;49.272;8.590;2024-01-30T04:37:28;1.36;92.86
70246;SHT30;57637;49.272;8.590;2024-01-30T04:39:53;1.40;93.07
70246;SHT30;57637;49.272;8.590;2024-01-30T04:42:18;1.39;92.98
70246;SHT30;57637;49.272;8.590;2024-01-30T04:44:44;1.34;92.89
70246;SHT30;57637;49.272;8.590;2024-01-30T04:47:09;1.29;92.90
70246;SHT30;57637;49.272;8.590;2024-01-30T04:49:36;1.24;92.85
70246;SHT30;57637;49.272;8.590;2024-01-30T04:52:04;1.19;92.81
70246;SHT30;57637;49.272;8.590;2024-01-30T04:54:29;1.12;92.83
70246;SHT30;57637;49.272;8.590;2024-01-30T04:56:54;1.02;92.81
70246;SHT30;57637;49.272;8.590;2024-01-30T04:59:20;0.98;92.83
70246;SHT30;57637;49.272;8.590;2024-01-30T05:01:45;0.94;92.92
70246;SHT30;57637;49.272;8.590;2024-01-30T05:04:11;0.92;92.91
70246;SHT30;57637;49.272;8.590;2024-01-30T05:06:36;0.92;92.96
70246;SHT30;57637;49.272;8.590;2024-01-30T05:09:02;0.89;92.90
70246;SHT30;57637;49.272;8.590;2024-01-30T05:11:29;0.92;93.09
70246;SHT30;57637;49.272;8.590;2024-01-30T05:13:55;0.95;93.09
70246;SHT30;57637;49.272;8.590;2024-01-30T05:16:20;1.02;93.26
70246;SHT30;57637;49.272;8.590;2024-01-30T05:18:45;1.01;93.24
70246;SHT30;57637;49.272;8.590;2024-01-30T05:21:10;0.99;93.27
70246;SHT30;57637;49.272;8.590;2024-01-30T05:23:36;0.99;93.38
70246;SHT30;57637;49.272;8.590;2024-01-30T05:26:01;1.11;93.55
70246;SHT30;57637;49.272;8.590;2024-01-30T05:28:28;1.16;93.54
70246;SHT30;57637;49.272;8.590;2024-01-30T05:30:55;1.26;93.59
70246;SHT30;57637;49.272;8.590;2024-01-30T05:33:21;1.21;93.37
70246;SHT30;57637;49.272;8.590;2024-01-30T05:35:46;1.22;93.45
70246;SHT30;57637;49.272;8.590;2024-01-30T05:38:11;1.21;93.46
70246;SHT30;57637;49.272;8.590;2024-01-30T05:40:37;1.32;93.56
70246;SHT30;57637;49.272;8.590;2024-01-30T05:43:03;1.34;93.39
70246;SHT30;57637;49.272;8.590;2024-01-30T05:45:28;1.34;93.33
70246;SHT30;57637;49.272;8.590;2024-01-30T05:47:54;1.31;93.26
70246;SHT30;57637;49.272;8.590;2024-01-30T05:50:19;1.26;93.22
70246;SHT30;57637;49.272;8.590;2024-01-30T05:52:45;1.24;93.21
70246;SHT30;57637;49.272;8.590;2024-01-30T05:55:11;1.24;93.27
70246;SHT30;57637;49.272;8.590;2024-01-30T05:57:37;1.21;93.23
70246;SHT30;57637;49.272;8.590;2024-01-30T06:00:03;1.19;93.25
70246;SHT30;57637;49.272;8.590;2024-01-30T06:02:29;1.18;93.29
70246;SHT30;57637;49.272;8.590;2024-01-30T06:04:55;1.16;93.29
70246;SHT30;57637;49.272;8.590;2024-01-30T06:07:20;1.15;93.33
70246;SHT30;57637;49.272;8.590;2024-01-30T06:09:47;1.15;93.39
70246;SHT30;57637;49.272;8.590;2024-01-30T06:12:12;1.19;93.42
70246;SHT30;57637;49.272;8.590;2024-01-30T06:14:37;1.12;93.32
70246;SHT30;57637;49.272;8.590;2024-01-30T06:17:03;1.11;93.41
70246;SHT30;57637;49.272;8.590;2024-01-30T06:19:30;1.14;93.46
70246;SHT30;57637;49.272;8.590;2024-01-30T06:21:55;1.11;93.42
70246;SHT30;57637;49.272;8.590;2024-01-30T06:24:20;1.08;93.42
70246;SHT30;57637;49.272;8.590;2024-01-30T06:26:46;1.06;93.44
70246;SHT30;57637;49.272;8.590;2024-01-30T06:29:11;1.09;93.50
70246;SHT30;57637;49.272;8.590;2024-01-30T06:31:40;1.08;93.50
70246;SHT30;57637;49.272;8.590;2024-01-30T06:34:06;1.04;93.47
70246;SHT30;57637;49.272;8.590;2024-01-30T06:36:32;1.11;93.60
70246;SHT30;57637;49.272;8.590;2024-01-30T06:38:57;1.08;93.49
70246;SHT30;57637;49.272;8.590;2024-01-30T06:41:22;1.14;93.52
70246;SHT30;57637;49.272;8.590;2024-01-30T06:43:48;1.18;93.58
70246;SHT30;57637;49.272;8.590;2024-01-30T06:46:14;1.15;93.51
70246;SHT30;57637;49.272;8.590;2024-01-30T06:48:40;1.18;93.52
70246;SHT30;57637;49.272;8.590;2024-01-30T06:51:05;1.19;93.52
70246;SHT30;57637;49.272;8.590;2024-01-30T06:53:34;1.18;93.42
70246;SHT30;57637;49.272;8.590;2024-01-30T06:56:00;1.24;93.50
70246;SHT30;57637;49.272;8.590;2024-01-30T06:58:25;1.25;93.48
70246;SHT30;57637;49.272;8.590;2024-01-30T07:00:51;1.24;93.42
70246;SHT30;57637;49.272;8.590;2024-01-30T07:03:16;1.25;93.41
70246;SHT30;57637;49.272;8.590;2024-01-30T07:05:42;1.26;93.39
70246;SHT30;57637;49.272;8.590;2024-01-30T07:08:07;1.31;93.34
70246;SHT30;57637;49.272;8.590;2024-01-30T07:10:33;1.32;93.32
70246;SHT30;57637;49.272;8.590;2024-01-30T07:13:00;1.31;93.32
70246;SHT30;57637;49.272;8.590;2024-01-30T07:15:25;1.35;93.33
70246;SHT30;57637;49.272;8.590;2024-01-30T07:17:51;1.39;93.31
70246;SHT30;57637;49.272;8.590;2024-01-30T07:20:16;1.42;93.26
70246;SHT30;57637;49.272;8.590;2024-01-30T07:22:44;1.48;93.13
70246;SHT30;57637;49.272;8.590;2024-01-30T07:25:10;1.49;93.13
70246;SHT30;57637;49.272;8.590;2024-01-30T07:27:35;1.49;93.10
70246;SHT30;57637;49.272;8.590;2024-01-30T07:30:00;1.52;93.03
70246;SHT30;57637;49.272;8.590;2024-01-30T07:32:26;1.52;92.99
70246;SHT30;57637;49.272;8.590;2024-01-30T07:34:51;1.55;92.96
70246;SHT30;57637;49.272;8.590;2024-01-30T07:37:16;1.59;92.82
70246;SHT30;57637;49.272;8.590;2024-01-30T07:39:42;1.60;92.86
70246;SHT30;57637;49.272;8.590;2024-01-30T07:42:08;1.77;93.08
70246;SHT30;57637;49.272;8.590;2024-01-30T07:44:33;1.77;92.61
70246;SHT30;57637;49.272;8.590;2024-01-30T07:46:59;1.76;92.42
70246;SHT30;57637;49.272;8.590;2024-01-30T07:49:24;1.80;92.44
70246;SHT30;57637;49.272;8.590;2024-01-30T07:51:50;1.89;92.33
70246;SHT30;57637;49.272;8.590;2024-01-30T07:54:15;1.91;92.16
70246;SHT30;57637;49.272;8.590;2024-01-30T07:56:41;1.89;91.95
70246;SHT30;57637;49.272;8.590;2024-01-30T07:59:09;1.94;91.89
70246;SHT30;57637;49.272;8.590;2024-01-30T08:01:36;2.09;91.98
70246;SHT30;57637;49.272;8.590;2024-01-30T08:04:01;2.21;91.77
70246;SHT30;57637;49.272;8.590;2024-01-30T08:06:26;2.31;91.39
70246;SHT30;57637;49.272;8.590;2024-01-30T08:08:52;2.42;91.33
70246;SHT30;57637;49.272;8.590;2024-01-30T08:11:19;2.52;91.03
70246;SHT30;57637;49.272;8.590;2024-01-30T08:13:45;2.62;90.76
70246;SHT30;57637;49.272;8.590;2024-01-30T08:16:10;2.72;90.53
70246;SHT30;57637;49.272;8.590;2024-01-30T08:18:36;2.75;90.18
70246;SHT30;57637;49.272;8.590;2024-01-30T08:21:02;2.89;90.12
70246;SHT30;57637;49.272;8.590;2024-01-30T08:23:27;2.96;89.39
70246;SHT30;57637;49.272;8.590;2024-01-30T08:25:53;3.02;89.27
70246;SHT30;57637;49.272;8.590;2024-01-30T08:28:18;3.19;89.43
70246;SHT30;57637;49.272;8.590;2024-01-30T08:30:43;3.07;88.93
70246;SHT30;57637;49.272;8.590;2024-01-30T08:33:09;3.10;88.91
70246;SHT30;57637;49.272;8.590;2024-01-30T08:35:34;3.19;88.99
70246;SHT30;57637;49.272;8.590;2024-01-30T08:37:59;3.27;88.89
70246;SHT30;57637;49.272;8.590;2024-01-30T08:40:25;3.33;88.62
70246;SHT30;57637;49.272;8.590;2024-01-30T08:42:50;3.30;88.23
70246;SHT30;57637;49.272;8.590;2024-01-30T08:45:15;3.46;88.06
70246;SHT30;57637;49.272;8.590;2024-01-30T08:47:41;3.53;88.33
70246;SHT30;57637;49.272;8.590;2024-01-30T08:50:06;3.47;88.08
70246;SHT30;57637;49.272;8.590;2024-01-30T08:52:32;3.48;87.86
70246;SHT30;57637;49.272;8.590;2024-01-30T08:54:59;3.58;87.68
70246;SHT30;57637;49.272;8.590;2024-01-30T08:57:24;3.53;87.93
70246;SHT30;57637;49.272;8.590;2024-01-30T08:59:53;3.46;87.87
70246;SHT30;57637;49.272;8.590;2024-01-30T09:02:18;3.54;88.11
70246;SHT30;57637;49.272;8.590;2024-01-30T09:04:44;3.64;87.74
70246;SHT30;57637;49.272;8.590;2024-01-30T09:07:09;3.61;87.89
70246;SHT30;57637;49.272;8.590;2024-01-30T09:09:35;3.64;88.00
70246;SHT30;57637;49.272;8.590;2024-01-30T09:12:00;3.84;88.29
70246;SHT30;57637;49.272;8.590;2024-01-30T09:14:31;3.88;87.48
70246;SHT30;57637;49.272;8.590;2024-01-30T09:16:57;3.92;87.70
70246;SHT30;57637;49.272;8.590;2024-01-30T09:19:22;4.13;87.38
70246;SHT30;57637;49.272;8.590;2024-01-30T09:21:48;4.25;86.82
70246;SHT30;57637;49.272;8.590;2024-01-30T09:24:13;4.33;86.58
70246;SHT30;57637;49.272;8.590;2024-01-30T09:26:38;4.33;86.25
70246;SHT30;57637;49.272;8.590;2024-01-30T09:29:04;4.28;86.67
70246;SHT30;57637;49.272;8.590;2024-01-30T09:31:29;4.36;86.36
70246;SHT30;57637;49.272;8.590;2024-01-30T09:33:54;4.52;86.59
70246;SHT30;57637;49.272;8.590;2024-01-30T09:36:20;4.59;85.62
70246;SHT30;57637;49.272;8.590;2024-01-30T09:38:45;4.76;86.01
70246;SHT30;57637;49.272;8.590;2024-01-30T09:41:11;4.95;85.33
70246;SHT30;57637;49.272;8.590;2024-01-30T09:43:37;5.11;85.03
70246;SHT30;57637;49.272;8.590;2024-01-30T09:46:04;5.31;84.67
70246;SHT30;57637;49.272;8.590;2024-01-30T09:48:30;5.48;84.15
70246;SHT30;57637;49.272;8.590;2024-01-30T09:50:57;5.59;83.63
70246;SHT30;57637;49.272;8.590;2024-01-30T09:53:23;5.75;83.53
70246;SHT30;57637;49.272;8.590;2024-01-30T09:55:48;5.85;82.85
70246;SHT30;57637;49.272;8.590;2024-01-30T09:58:15;5.96;82.91
70246;SHT30;57637;49.272;8.590;2024-01-30T10:00:41;6.14;82.32
70246;SHT30;57637;49.272;8.590;2024-01-30T10:03:06;6.21;81.88
70246;SHT30;57637;49.272;8.590;2024-01-30T10:05:32;6.37;81.44
70246;SHT30;57637;49.272;8.590;2024-01-30T10:08:05;6.48;81.21
70246;SHT30;57637;49.272;8.590;2024-01-30T10:10:31;6.59;80.36
70246;SHT30;57637;49.272;8.590;2024-01-30T10:12:56;6.69;80.75
70246;SHT30;57637;49.272;8.590;2024-01-30T10:15:21;6.85;80.21
70246;SHT30;57637;49.272;8.590;2024-01-30T10:17:47;6.93;79.76
70246;SHT30;57637;49.272;8.590;2024-01-30T10:20:12;6.95;79.83
70246;SHT30;57637;49.272;8.590;2024-01-30T10:22:38;7.01;79.98
70246;SHT30;57637;49.272;8.590;2024-01-30T10:25:04;7.13;79.71
70246;SHT30;57637;49.272;8.590;2024-01-30T10:27:30;7.16;79.36
70246;SHT30;57637;49.272;8.590;2024-01-30T10:29:55;7.22;79.31
70246;SHT30;57637;49.272;8.590;2024-01-30T10:32:21;7.33;79.02
70246;SHT30;57637;49.272;8.590;2024-01-30T10:34:47;7.54;78.89
70246;SHT30;57637;49.272;8.590;2024-01-30T10:37:12;7.62;78.66
70246;SHT30;57637;49.272;8.590;2024-01-30T10:39:40;7.77;78.46
70246;SHT30;57637;49.272;8.590;2024-01-30T10:42:10;7.80;78.17
70246;SHT30;57637;49.272;8.590;2024-01-30T10:47:27;7.91;77.69
70246;SHT30;57637;49.272;8.590;2024-01-30T10:49:54;7.93;77.70
70246;SHT30;57637;49.272;8.590;2024-01-30T10:52:20;8.02;77.40
70246;SHT30;57637;49.272;8.590;2024-01-30T10:54:46;8.04;77.30
70246;SHT30;57637;49.272;8.590;2024-01-30T10:57:12;8.14;77.27
70246;SHT30;57637;49.272;8.590;2024-01-30T10:59:40;8.21;77.02
70246;SHT30;57637;49.272;8.590;2024-01-30T11:02:07;8.22;76.97
70246;SHT30;57637;49.272;8.590;2024-01-30T11:04:36;8.25;77.02
70246;SHT30;57637;49.272;8.590;2024-01-30T11:07:02;8.28;76.77
70246;SHT30;57637;49.272;8.590;2024-01-30T11:09:29;8.38;76.62
70246;SHT30;57637;49.272;8.590;2024-01-30T11:11:58;8.50;76.74
70246;SHT30;57637;49.272;8.590;2024-01-30T11:14:25;8.62;76.32
70246;SHT30;57637;49.272;8.590;2024-01-30T11:16:52;8.69;75.75
70246;SHT30;57637;49.272;8.590;2024-01-30T11:19:24;8.77;75.68
70246;SHT30;57637;49.272;8.590;2024-01-30T11:21:51;8.94;75.41
70246;SHT30;57637;49.272;8.590;2024-01-30T11:24:19;9.20;75.06
70246;SHT30;57637;49.272;8.590;2024-01-30T11:26:47;9.30;73.74
70246;SHT30;57637;49.272;8.590;2024-01-30T11:29:14;9.34;73.57
70246;SHT30;57637;49.272;8.590;2024-01-30T11:31:40;9.52;74.04
70246;SHT30;57637;49.272;8.590;2024-01-30T11:34:17;9.55;72.67
70246;SHT30;57637;49.272;8.590;2024-01-30T11:36:43;9.74;73.01
70246;SHT30;57637;49.272;8.590;2024-01-30T11:39:11;9.86;72.13
70246;SHT30;57637;49.272;8.590;2024-01-30T11:41:37;10.01;72.55
70246;SHT30;57637;49.272;8.590;2024-01-30T11:44:04;10.12;72.60
70246;SHT30;57637;49.272;8.590;2024-01-30T11:46:30;10.26;72.48
70246;SHT30;57637;49.272;8.590;2024-01-30T11:48:55;10.43;72.02
70246;SHT30;57637;49.272;8.590;2024-01-30T11:51:20;10.54;71.38
70246;SHT30;57637;49.272;8.590;2024-01-30T11:53:49;10.63;70.19
70246;SHT30;57637;49.272;8.590;2024-01-30T11:56:15;10.84;70.15
70246;SHT30;57637;49.272;8.590;2024-01-30T11:58:42;10.95;70.18
70246;SHT30;57637;49.272;8.590;2024-01-30T12:01:08;11.11;70.15
70246;SHT30;57637;49.272;8.590;2024-01-30T12:03:34;11.08;69.85
70246;SHT30;57637;49.272;8.590;2024-01-30T12:06:00;11.16;69.50
70246;SHT30;57637;49.272;8.590;2024-01-30T12:08:28;11.19;69.86
70246;SHT30;57637;49.272;8.590;2024-01-30T12:10:56;11.21;70.01
70246;SHT30;57637;49.272;8.590;2024-01-30T12:13:27;11.16;69.74
70246;SHT30;57637;49.272;8.590;2024-01-30T12:15:53;11.28;70.13
70246;SHT30;57637;49.272;8.590;2024-01-30T12:18:19;11.24;70.04
70246;SHT30;57637;49.272;8.590;2024-01-30T12:20:45;11.25;69.76
70246;SHT30;57637;49.272;8.590;2024-01-30T12:23:11;11.26;69.47
70246;SHT30;57637;49.272;8.590;2024-01-30T12:25:37;11.34;69.26
70246;SHT30;57637;49.272;8.590;2024-01-30T12:28:03;11.45;69.24
70246;SHT30;57637;49.272;8.590;2024-01-30T12:30:29;11.48;69.06
70246;SHT30;57637;49.272;8.590;2024-01-30T12:32:54;11.49;69.26
70246;SHT30;57637;49.272;8.590;2024-01-30T12:35:20;11.58;69.09
70246;SHT30;57637;49.272;8.590;2024-01-30T12:37:48;11.65;68.82
70246;SHT30;57637;49.272;8.590;2024-01-30T12:40:14;11.76;68.59
70246;SHT30;57637;49.272;8.590;2024-01-30T12:42:40;11.83;67.84
70246;SHT30;57637;49.272;8.590;2024-01-30T12:45:07;11.93;68.32
70246;SHT30;57637;49.272;8.590;2024-01-30T12:47:33;11.96;67.99
70246;SHT30;57637;49.272;8.590;2024-01-30T12:49:59;11.99;68.02
70246;SHT30;57637;49.272;8.590;2024-01-30T12:52:24;12.07;68.24
70246;SHT30;57637;49.272;8.590;2024-01-30T12:54:50;12.14;67.94
70246;SHT30;57637;49.272;8.590;2024-01-30T12:57:16;12.23;68.19
70246;SHT30;57637;49.272;8.590;2024-01-30T12:59:42;12.23;67.77
70246;SHT30;57637;49.272;8.590;2024-01-30T13:02:08;12.21;67.10
70246;SHT30;57637;49.272;8.590;2024-01-30T13:04:34;12.26;67.64
70246;SHT30;57637;49.272;8.590;2024-01-30T13:06:59;12.30;67.80
70246;SHT30;57637;49.272;8.590;2024-01-30T13:09:25;12.23;67.45
70246;SHT30;57637;49.272;8.590;2024-01-30T13:11:51;12.34;67.94
70246;SHT30;57637;49.272;8.590;2024-01-30T13:14:17;12.38;67.39
70246;SHT30;57637;49.272;8.590;2024-01-30T13:16:43;12.42;67.24
70246;SHT30;57637;49.272;8.590;2024-01-30T13:19:08;12.42;67.10
70246;SHT30;57637;49.272;8.590;2024-01-30T13:21:33;12.45;67.01
70246;SHT30;57637;49.272;8.590;2024-01-30T13:23:59;12.54;67.17
70246;SHT30;57637;49.272;8.590;2024-01-30T13:26:24;12.52;67.26
70246;SHT30;57637;49.272;8.590;2024-01-30T13:28:50;12.45;66.97
70246;SHT30;57637;49.272;8.590;2024-01-30T13:31:16;12.37;66.77
70246;SHT30;57637;49.272;8.590;2024-01-30T13:33:41;12.28;67.16
70246;SHT30;57637;49.272;8.590;2024-01-30T13:36:07;12.28;67.48
70246;SHT30;57637;49.272;8.590;2024-01-30T13:38:34;12.28;67.44
70246;SHT30;57637;49.272;8.590;2024-01-30T13:41:00;12.24;67.67
70246;SHT30;57637;49.272;8.590;2024-01-30T13:43:25;12.19;67.54
70246;SHT30;57637;49.272;8.590;2024-01-30T13:45:51;12.12;67.80
70246;SHT30;57637;49.272;8.590;2024-01-30T13:48:17;12.10;68.08
70246;SHT30;57637;49.272;8.590;2024-01-30T13:50:42;12.04;68.02
70246;SHT30;57637;49.272;8.590;2024-01-30T13:53:07;12.09;68.60
70246;SHT30;57637;49.272;8.590;2024-01-30T13:55:33;12.07;68.53
70246;SHT30;57637;49.272;8.590;2024-01-30T13:57:59;12.10;69.01
70246;SHT30;57637;49.272;8.590;2024-01-30T14:00:26;12.12;68.78
70246;SHT30;57637;49.272;8.590;2024-01-30T14:02:51;12.12;68.81
70246;SHT30;57637;49.272;8.590;2024-01-30T14:05:19;12.09;68.86
70246;SHT30;57637;49.272;8.590;2024-01-30T14:07:46;12.12;69.02
70246;SHT30;57637;49.272;8.590;2024-01-30T14:10:11;12.04;69.23
70246;SHT30;57637;49.272;8.590;2024-01-30T14:12:37;12.03;69.54
70246;SHT30;57637;49.272;8.590;2024-01-30T14:15:02;12.04;69.46
70246;SHT30;57637;49.272;8.590;2024-01-30T14:17:28;11.96;69.53
70246;SHT30;57637;49.272;8.590;2024-01-30T14:19:53;11.96;69.84
70246;SHT30;57637;49.272;8.590;2024-01-30T14:22:18;11.94;69.92
70246;SHT30;57637;49.272;8.590;2024-01-30T14:24:44;11.91;70.06
70246;SHT30;57637;49.272;8.590;2024-01-30T14:27:09;11.87;70.11
70246;SHT30;57637;49.272;8.590;2024-01-30T14:29:35;11.83;70.33
70246;SHT30;57637;49.272;8.590;2024-01-30T14:32:00;11.80;70.54
70246;SHT30;57637;49.272;8.590;2024-01-30T14:34:26;11.76;70.65
70246;SHT30;57637;49.272;8.590;2024-01-30T14:36:52;11.70;70.49
70246;SHT30;57637;49.272;8.590;2024-01-30T14:39:18;11.67;70.53
70246;SHT30;57637;49.272;8.590;2024-01-30T14:41:43;11.63;70.80
70246;SHT30;57637;49.272;8.590;2024-01-30T14:44:08;11.62;70.97
70246;SHT30;57637;49.272;8.590;2024-01-30T14:46:34;11.54;71.30
70246;SHT30;57637;49.272;8.590;2024-01-30T14:49:00;11.51;71.52
70246;SHT30;57637;49.272;8.590;2024-01-30T14:51:28;11.49;71.65
70246;SHT30;57637;49.272;8.590;2024-01-30T14:53:54;11.45;71.76
70246;SHT30;57637;49.272;8.590;2024-01-30T14:56:19;11.38;71.75
70246;SHT30;57637;49.272;8.590;2024-01-30T14:58:46;11.35;72.05
70246;SHT30;57637;49.272;8.590;2024-01-30T15:01:11;11.31;72.38
70246;SHT30;57637;49.272;8.590;2024-01-30T15:03:36;11.26;72.60
70246;SHT30;57637;49.272;8.590;2024-01-30T15:06:02;11.24;72.66
70246;SHT30;57637;49.272;8.590;2024-01-30T15:08:30;11.19;72.74
70246;SHT30;57637;49.272;8.590;2024-01-30T15:10:55;11.15;72.76
70246;SHT30;57637;49.272;8.590;2024-01-30T15:13:22;11.14;73.06
70246;SHT30;57637;49.272;8.590;2024-01-30T15:15:47;11.11;73.31
70246;SHT30;57637;49.272;8.590;2024-01-30T15:18:12;11.07;73.45
70246;SHT30;57637;49.272;8.590;2024-01-30T15:20:38;11.03;73.55
70246;SHT30;57637;49.272;8.590;2024-01-30T15:23:03;10.95;73.66
70246;SHT30;57637;49.272;8.590;2024-01-30T15:25:29;10.93;73.70
70246;SHT30;57637;49.272;8.590;2024-01-30T15:27:54;10.88;73.86
70246;SHT30;57637;49.272;8.590;2024-01-30T15:30:19;10.85;73.97
70246;SHT30;57637;49.272;8.590;2024-01-30T15:32:45;10.80;74.09
70246;SHT30;57637;49.272;8.590;2024-01-30T15:35:11;10.73;74.20